Barron, WI

10:12 PM CDT on July 13, 2014 (GMT -0500)
Rice Lake Regional-Carl's (KRPD) Elev 1106 ft | 45.42 °N, 91.78 °W | Change Station

Current weather conditions updated 17 minutes ago

Overcast
Overcast
62 °F
Feels Like 62 °F
N
0
Wind Variable Wind from North

Tomorrow is forecast to be Much Cooler than today. A few thunderstorms possible.

Today
High -- | Low -- °F
--% Chance of Precip.
Yesterday
High -- | Low -- °F
Precip. -- in
5:31 AM 8:53 PM
Waning Gibbous, 96% visible
Pressure 29.90 in
Visibility 10.0 miles
Clouds Overcast 9000 ft
Dew Point 51 °F
Humidity 68%
Rainfall 0.00 in
Snow Depth Not available.
UV 0 out of 12
Pollen 4.20 out of 12
Air Quality Not available.
Flu Activity Sporadic
METAR KRPD 140255Z AUTO 00000KT 10SM OVC090 17/11 A2990 RMK AO2 T01650106

More Conditions Fewer Conditions

Pressure 29.90 in
Visibility 10.0 miles
Clouds Overcast 9000 ft
Dew Point 51 °F
Humidity 68%
Rainfall 0.00 in
Snow Depth Not available.
UV 0 out of 12
Pollen 4.20 out of 12
Air Quality Not available.
Flu Activity Sporadic
METAR KRPD 140255Z AUTO 00000KT 10SM OVC090 17/11 A2990 RMK AO2 T01650106

More Conditions Fewer Conditions

10-Day Weather Forecast

Almanac

Astronomy

Jul. 13, 2014 Rise Set
Actual Time 5:31 AM CDT 8:53 PM CDT
Civil Twilight 4:54 AM CDT 9:30 PM CDT
Nautical Twilight 4:06 AM CDT 10:17 PM CDT
Astronomical Twilight 3:06 AM CDT 11:18 PM CDT
Moon 9:33 PM CDT (7/13) 7:09 AM CDT (7/13)
Length of Visible Light 16h 35m
Length of Day
15h 22m
Tomorrow will be 1m 35s shorter.
Waning Gibbous, 96% of the Moon is Illuminated
Today
Waning Gibbous
Jul 18
Last Quarter
Jul 26
New
Aug 3
First Quarter
Aug 10
Full

Today's Extremes

State Highs State Lows

Community

WunderPhotos

Upload Photos

1,733,516 photos uploaded!

Nearby

Snow Depth

Station Depth Elevation
No new snow has been reported.

Earthquake Activity

City Distance Mag. Time & Date
No recent earthquake activity has been reported nearby.
Minimum magnitude displayed is 2.5.

Coastal Water Temperatures

Place Temperature
No Stations Reporting

Nearby Weather Stations

Station Location Temp. Dew Point Humidity Wind Precip. Elev Updated Type
Chris and Kristin Olson, Barron, WI 62.7 °F 50 °F 62% WSW  at  2.7 mph 0.00 in / hr 1122 ft 10:12 PM CDT Rapid Fire
WIDOT Haugen - USH 53 @ 30th Ave., Haugen, WI 65 °F 47 °F 53% WSW  at  2 mph 0.00 in / hr 1280 ft 9:06 PM CDT MADIS
The Woods, Birchwood, WI 62.1 °F 55 °F 77% South  at  0.0 mph - / hr 1214 ft 10:06 PM CDT Normal
Shell Lake, Shell Lake, WI 62.0 °F 52 °F 69% North  at  0.0 mph - / hr 1230 ft 10:12 PM CDT Normal
Shell Lake, WI 62.1 °F 51 °F 66% SW  at  1.7 mph - / hr 1240 ft 10:06 PM CDT Normal
Sand Lake, WI, New Auburn, WI 59.2 °F 38 °F 45% NNW  at  0.0 mph 0.00 in / hr 0 ft 10:12 PM CDT Rapid Fire

Show More Stations Show Fewer Stations